Time;durP1;ratioP1;P1;durP2;ratioP2;P2;SDS_P1;SDS_P2;PMS_P1;PMS_P2;Temp;Humidity;BMP_temperature;BMP_pressure;BME280_temperature;BME280_humidity;BME280_pressure;Samples;Min_cycle;Max_cycle;Signal;HPM_P1;HPM_P2
2021/12/11 00:00:57;;;;;;;0.00;0.00;;;-1.70;99.90;;;;;;4980658;28;20212;-65
2021/12/11 00:03:27;;;;;;;0.00;0.00;;;-1.80;99.90;;;;;;4962546;28;20400;-64
2021/12/11 00:06:16;;;;;;;0.00;0.00;;;-1.80;99.90;;;;;;4930719;29;20790;-64
2021/12/11 00:08:44;;;;;;;0.00;0.00;;;-1.70;99.90;;;;;;4941183;29;20597;-66
2021/12/11 00:11:21;;;;;;;0.00;0.00;;;-1.70;99.90;;;;;;4941932;29;20066;-64
2021/12/11 00:13:47;;;;;;;0.00;0.00;;;-1.70;99.90;;;;;;4941955;29;20106;-65
2021/12/11 00:16:18;;;;;;;0.00;0.00;;;-1.70;99.90;;;;;;4940872;29;20142;-65
2021/12/11 00:18:48;;;;;;;0.00;0.00;;;-1.70;99.90;;;;;;4941039;29;20054;-65
2021/12/11 00:21:16;;;;;;;0.00;0.00;;;-1.80;99.90;;;;;;4941933;29;20560;-65
2021/12/11 00:23:52;;;;;;;0.00;0.00;;;-1.90;99.90;;;;;;4940748;29;20224;-65
2021/12/11 00:26:50;;;;;;;0.00;0.00;;;-1.90;99.90;;;;;;4941447;29;20122;-64
2021/12/11 00:29:22;;;;;;;0.00;0.00;;;-1.80;99.90;;;;;;4940672;28;20047;-65
2021/12/11 00:31:54;;;;;;;0.00;0.00;;;-1.80;99.90;;;;;;4924288;29;20098;-65
2021/12/11 00:34:21;;;;;;;0.00;0.00;;;-1.80;99.90;;;;;;4940117;29;20067;-65
2021/12/11 00:36:56;;;;;;;0.00;0.00;;;-1.80;99.90;;;;;;4941055;29;20055;-65
2021/12/11 00:39:23;;;;;;;0.00;0.00;;;-1.80;99.90;;;;;;4941666;29;20039;-64
2021/12/11 00:41:52;;;;;;;0.00;0.00;;;-1.80;99.90;;;;;;4923871;29;20698;-65
2021/12/11 00:44:17;;;;;;;0.00;0.00;;;-1.70;99.90;;;;;;4941233;29;20526;-65
2021/12/11 00:46:43;;;;;;;0.00;0.00;;;-1.80;99.90;;;;;;4941241;29;20049;-64
2021/12/11 00:49:21;;;;;;;0.00;0.00;;;-1.80;99.90;;;;;;4940634;29;20491;-65
2021/12/11 00:51:54;;;;;;;0.00;0.00;;;-1.80;99.90;;;;;;5096236;27;20569;-64
2021/12/11 00:54:21;;;;;;;0.00;0.00;;;-1.80;99.90;;;;;;5094980;28;20048;-64
2021/12/11 00:56:48;;;;;;;0.00;0.00;;;-1.80;99.90;;;;;;5096276;28;20044;-64
2021/12/11 00:59:17;;;;;;;0.00;0.00;;;-1.80;99.90;;;;;;5094313;28;20679;-65
2021/12/11 01:01:49;;;;;;;0.00;0.00;;;-1.80;99.90;;;;;;5094449;28;20040;-64
2021/12/11 01:04:23;;;;;;;0.00;0.00;;;-1.80;99.90;;;;;;5088359;28;20055;-64
2021/12/11 01:06:53;;;;;;;0.00;0.00;;;-1.80;99.90;;;;;;5075489;28;20091;-64
2021/12/11 01:09:24;;;;;;;0.00;0.00;;;-1.90;99.90;;;;;;5075642;28;20115;-63
2021/12/11 01:11:52;;;;;;;0.00;0.00;;;-1.90;99.90;;;;;;5073983;28;20101;-64
2021/12/11 01:14:30;;;;;;;0.00;0.00;;;-2.00;99.90;;;;;;5074808;28;20040;-64
2021/12/11 01:17:12;;;;;;;0.00;0.00;;;-2.00;99.90;;;;;;5075325;28;20070;-65
2021/12/11 01:19:40;;;;;;;0.00;0.00;;;-2.10;99.90;;;;;;5073880;28;20044;-64
2021/12/11 01:22:24;;;;;;;0.00;0.00;;;-2.20;99.90;;;;;;5073941;28;20521;-64
2021/12/11 01:24:52;;;;;;;0.00;0.00;;;-2.20;99.90;;;;;;5074006;28;20041;-65
2021/12/11 01:27:24;;;;;;;0.00;0.00;;;-2.20;99.90;;;;;;5107880;28;20087;-66
2021/12/11 01:29:56;;;;;;;0.00;0.00;;;-2.10;99.90;;;;;;5074902;28;20036;-65
2021/12/11 01:32:23;;;;;;;0.00;0.00;;;-2.00;99.90;;;;;;5074169;28;20048;-64
2021/12/11 01:34:50;;;;;;;0.00;0.00;;;-2.10;99.90;;;;;;5073285;28;20055;-64
2021/12/11 01:37:16;;;;;;;0.00;0.00;;;-2.10;99.90;;;;;;5074936;28;20058;-66
2021/12/11 01:39:42;;;;;;;0.00;0.00;;;-2.10;99.90;;;;;;5075092;28;20056;-64
2021/12/11 01:42:22;;;;;;;0.00;0.00;;;-2.20;99.90;;;;;;5073999;28;20091;-64
2021/12/11 01:44:49;;;;;;;0.00;0.00;;;-2.20;99.90;;;;;;5074938;28;20048;-64
2021/12/11 01:47:20;;;;;;;0.00;0.00;;;-2.30;99.90;;;;;;5107672;28;20152;-64
2021/12/11 01:49:50;;;;;;;0.00;0.00;;;-2.20;99.90;;;;;;5073468;28;20054;-65
2021/12/11 01:52:34;;;;;;;0.00;0.00;;;-2.10;99.90;;;;;;5074672;28;20036;-66
2021/12/11 01:55:02;;;;;;;0.03;0.03;;;-2.10;99.90;;;;;;5074514;28;20037;-65
2021/12/11 01:57:30;;;;;;;0.00;0.00;;;-2.10;99.90;;;;;;5075200;28;20056;-65
2021/12/11 02:00:00;;;;;;;0.00;0.00;;;-2.10;99.90;;;;;;5074284;28;20053;-65
2021/12/11 02:02:37;;;;;;;0.00;0.00;;;-2.10;99.90;;;;;;5064734;28;20449;-65
2021/12/11 02:05:04;;;;;;;0.00;0.00;;;-2.20;99.90;;;;;;5069880;28;20809;-64
2021/12/11 02:07:44;;;;;;;0.00;0.00;;;-2.30;99.90;;;;;;5094201;28;20052;-64
2021/12/11 02:10:18;;;;;;;0.00;0.00;;;-2.20;99.90;;;;;;5106854;27;20118;-65
2021/12/11 02:12:44;;;;;;;0.00;0.00;;;-2.20;99.90;;;;;;5081042;28;20094;-65
2021/12/11 02:15:16;;;;;;;0.00;0.00;;;-2.20;99.90;;;;;;5081094;28;20542;-64
2021/12/11 02:17:51;;;;;;;0.00;0.00;;;-2.20;99.90;;;;;;5079864;28;20138;-64
2021/12/11 02:20:20;;;;;;;;;;;-2.30;99.90;;;;;;5081475;28;20052;-65
2021/12/11 02:22:48;;;;;;;0.00;0.00;;;-2.20;99.90;;;;;;5080846;28;20091;-64
2021/12/11 02:25:28;;;;;;;0.00;0.00;;;-2.20;99.90;;;;;;5080265;28;20072;-64
2021/12/11 02:28:10;;;;;;;0.00;0.00;;;-2.10;99.90;;;;;;5080756;28;20383;-65
2021/12/11 02:30:47;;;;;;;0.00;0.00;;;-2.10;99.90;;;;;;5080468;28;20106;-64
2021/12/11 02:33:19;;;;;;;0.00;0.00;;;-2.20;99.90;;;;;;5080012;28;20036;-64
2021/12/11 02:36:10;;;;;;;0.00;0.00;;;-1.60;99.90;;;;;;5079696;28;20079;-65
2021/12/11 02:38:48;;;;;;;0.00;0.00;;;-2.30;99.90;;;;;;5071403;28;20094;-65
2021/12/11 02:41:23;;;;;;;0.00;0.00;;;-2.20;99.90;;;;;;5079573;28;20063;-65
2021/12/11 02:43:55;;;;;;;0.00;0.00;;;0.90;99.90;;;;;;5078846;28;20084;-64
2021/12/11 02:46:31;;;;;;;0.00;0.00;;;-2.30;99.90;;;;;;5080512;28;20040;-65
2021/12/11 02:49:07;;;;;;;0.00;0.00;;;-2.30;99.90;;;;;;5079460;28;20043;-65
2021/12/11 02:51:50;;;;;;;0.00;0.00;;;-2.20;99.90;;;;;;5080098;28;20063;-65
2021/12/11 02:54:21;;;;;;;0.00;0.00;;;-2.20;99.90;;;;;;5080187;28;20078;-65
2021/12/11 02:56:57;;;;;;;0.00;0.00;;;-2.20;99.90;;;;;;5080273;28;20415;-65
2021/12/11 02:59:27;;;;;;;0.00;0.00;;;-2.10;99.90;;;;;;5079070;28;20055;-65
2021/12/11 03:02:09;;;;;;;0.00;0.00;;;-2.10;99.90;;;;;;5079718;28;20102;-64
2021/12/11 03:04:39;;;;;;;0.00;0.00;;;-1.90;99.90;;;;;;5100396;27;20073;-65
2021/12/11 03:07:08;;;;;;;0.00;0.00;;;-2.10;99.90;;;;;;5078989;28;20397;-62
2021/12/11 03:09:38;;;;;;;0.00;0.00;;;-2.10;99.90;;;;;;5080148;28;20144;-65
2021/12/11 03:12:07;;;;;;;0.00;0.00;;;-2.10;99.90;;;;;;5112708;27;20055;-65
2021/12/11 03:14:33;;;;;;;0.00;0.00;;;-2.20;99.90;;;;;;5078319;28;20032;-63
2021/12/11 03:17:00;;;;;;;0.00;0.00;;;-2.20;99.90;;;;;;5080335;28;20044;-64
2021/12/11 03:19:29;;;;;;;0.00;0.00;;;-2.90;99.90;;;;;;5078931;28;20498;-65
2021/12/11 03:21:57;;;;;;;0.00;0.00;;;-2.30;99.90;;;;;;5078923;28;20076;-65
2021/12/11 03:24:25;;;;;;;0.00;0.00;;;-2.60;99.90;;;;;;5079745;28;20409;-65
2021/12/11 03:26:52;;;;;;;0.00;0.00;;;-2.30;99.90;;;;;;5079487;28;20127;-65
2021/12/11 03:29:18;;;;;;;0.00;0.00;;;-2.30;99.90;;;;;;5079534;28;20044;-64
2021/12/11 03:31:45;;;;;;;0.00;0.00;;;-2.10;99.90;;;;;;5078607;28;20703;-64
2021/12/11 03:34:15;;;;;;;0.00;0.00;;;-2.40;99.90;;;;;;5111368;27;20065;-63
2021/12/11 03:36:41;;;;;;;0.00;0.00;;;-2.50;99.90;;;;;;5079696;28;20090;-64
2021/12/11 03:39:22;;;;;;;0.00;0.00;;;-2.50;99.90;;;;;;5078488;28;20130;-64
2021/12/11 03:41:49;;;;;;;0.00;0.00;;;-2.50;99.90;;;;;;5079497;28;20073;-64
2021/12/11 03:44:16;;;;;;;0.00;0.00;;;-2.50;99.90;;;;;;5079087;28;20526;-65
2021/12/11 03:46:44;;;;;;;0.00;0.00;;;-2.60;99.90;;;;;;5078455;28;20044;-64
2021/12/11 03:49:14;;;;;;;0.00;0.00;;;-2.50;99.90;;;;;;5077158;28;20056;-65
2021/12/11 03:51:46;;;;;;;0.00;0.00;;;-2.60;99.90;;;;;;5079169;28;20101;-65
2021/12/11 03:54:16;;;;;;;0.00;0.00;;;-2.50;99.90;;;;;;5078056;28;20055;-66
2021/12/11 03:56:42;;;;;;;0.00;0.00;;;-2.50;99.90;;;;;;5078888;28;20054;-64
2021/12/11 03:59:10;;;;;;;0.00;0.00;;;-2.50;99.90;;;;;;5077829;28;20090;-65
2021/12/11 04:01:42;;;;;;;0.00;0.00;;;-2.50;99.90;;;;;;5111378;27;20058;-65
2021/12/11 04:04:13;;;;;;;0.00;0.00;;;-2.50;99.90;;;;;;5071666;28;20086;-66
2021/12/11 04:06:39;;;;;;;0.00;0.00;;;-2.50;99.90;;;;;;5058897;28;20135;-65
2021/12/11 04:09:08;;;;;;;0.00;0.00;;;-2.00;99.90;;;;;;5058653;28;20441;-64
2021/12/11 04:11:35;;;;;;;0.00;0.00;;;-5.30;99.90;;;;;;5058338;28;21012;-65
2021/12/11 04:14:06;;;;;;;0.00;0.00;;;-2.10;99.90;;;;;;5058887;28;20048;-65
2021/12/11 04:16:32;;;;;;;0.05;0.05;;;-2.50;99.90;;;;;;5057915;28;20056;-66
2021/12/11 04:18:58;;;;;;;0.00;0.00;;;-2.40;99.90;;;;;;5089564;28;20041;-65
2021/12/11 04:21:24;;;;;;;0.00;0.00;;;-2.50;99.90;;;;;;5058694;28;20410;-66
2021/12/11 04:23:50;;;;;;;0.80;0.80;;;-3.10;99.90;;;;;;5058391;28;20052;-66
2021/12/11 04:26:16;;;;;;;0.08;0.08;;;-2.40;99.90;;;;;;5058293;28;20052;-65
2021/12/11 04:28:45;;;;;;;0.00;0.00;;;-2.30;99.90;;;;;;5057597;28;20056;-64
2021/12/11 04:31:18;;;;;;;0.00;0.00;;;-2.10;99.90;;;;;;5090703;28;20592;-65
2021/12/11 04:33:46;;;;;;;0.00;0.00;;;-2.10;99.90;;;;;;5057366;28;20185;-65
2021/12/11 04:36:20;;;;;;;0.00;0.00;;;-2.10;99.90;;;;;;5057494;28;20040;-65
2021/12/11 04:38:49;;;;;;;0.00;0.00;;;-2.10;99.90;;;;;;5058607;28;20055;-64
2021/12/11 04:41:22;;;;;;;0.00;0.00;;;-2.10;99.90;;;;;;5058432;28;20047;-64
2021/12/11 04:43:50;;;;;;;0.00;0.00;;;-2.10;99.90;;;;;;5058082;28;20085;-64
2021/12/11 04:46:16;;;;;;;0.00;0.00;;;-1.60;99.90;;;;;;5058216;28;20454;-66
2021/12/11 04:49:14;;;;;;;0.03;0.03;;;-2.10;99.90;;;;;;5089648;28;20460;-65
2021/12/11 04:52:00;;;;;;;0.00;0.00;;;-2.20;99.90;;;;;;5057876;28;20056;-65
2021/12/11 04:54:55;;;;;;;0.00;0.00;;;-2.30;99.90;;;;;;5057324;28;20047;-65
2021/12/11 05:07:44;;;;;;;0.00;0.00;;;-2.40;99.90;;;;;;5078252;28;20052;-65
2021/12/11 05:10:22;;;;;;;0.00;0.00;;;-2.40;99.90;;;;;;5076564;28;20075;-65
2021/12/11 05:12:54;;;;;;;0.00;0.00;;;-2.40;99.90;;;;;;5076737;28;20652;-65
2021/12/11 05:15:26;;;;;;;0.00;0.00;;;-2.40;99.90;;;;;;5078044;28;20094;-64
2021/12/11 05:17:53;;;;;;;0.00;0.00;;;-2.50;99.90;;;;;;5110177;28;20047;-64
2021/12/11 05:20:22;;;;;;;0.00;0.00;;;-2.60;99.90;;;;;;5109947;28;20055;-65
2021/12/11 05:22:47;;;;;;;0.00;0.00;;;-2.50;99.90;;;;;;5077946;28;20075;-64
2021/12/11 05:25:15;;;;;;;0.00;0.00;;;-2.60;99.90;;;;;;5076725;28;20780;-65
2021/12/11 05:27:43;;;;;;;0.00;0.00;;;-2.50;99.90;;;;;;5109620;28;20055;-64
2021/12/11 05:30:17;;;;;;;0.00;0.00;;;-2.50;99.90;;;;;;5077756;28;20406;-64
2021/12/11 05:32:44;;;;;;;0.00;0.00;;;-2.50;99.90;;;;;;5077384;28;20048;-65
2021/12/11 05:35:10;;;;;;;0.00;0.00;;;-1.50;99.90;;;;;;5075684;28;20036;-65
2021/12/11 05:37:37;;;;;;;0.00;0.00;;;-2.40;99.90;;;;;;5080244;28;20116;-65
2021/12/11 05:40:06;;;;;;;0.00;0.00;;;-2.70;99.90;;;;;;5082090;28;20633;-63
2021/12/11 05:42:32;;;;;;;0.00;0.00;;;-2.40;99.90;;;;;;5082223;28;20042;-65
2021/12/11 05:44:57;;;;;;;0.00;0.00;;;-2.50;99.90;;;;;;5080814;28;20126;-64
2021/12/11 05:47:23;;;;;;;0.00;0.00;;;-2.50;99.90;;;;;;5080707;28;20546;-64
2021/12/11 05:49:49;;;;;;;0.00;0.00;;;-2.30;99.90;;;;;;5080136;28;20091;-65
2021/12/11 05:52:16;;;;;;;0.30;0.30;;;-2.50;99.90;;;;;;5081798;28;20060;-65
2021/12/11 05:54:44;;;;;;;0.00;0.00;;;-2.30;99.90;;;;;;5079919;28;20132;-64
2021/12/11 05:57:13;;;;;;;0.00;0.00;;;-2.30;99.90;;;;;;5081597;28;20079;-64
2021/12/11 05:59:41;;;;;;;0.00;0.00;;;-2.30;99.90;;;;;;5081505;28;20338;-65
2021/12/11 06:02:12;;;;;;;0.00;0.00;;;-2.20;99.90;;;;;;5111755;27;20083;-64
2021/12/11 06:04:39;;;;;;;0.00;0.00;;;-2.20;99.90;;;;;;5072447;28;20033;-66
2021/12/11 06:07:08;;;;;;;0.00;0.00;;;-2.20;99.90;;;;;;5093314;28;20040;-65
2021/12/11 06:09:36;;;;;;;0.55;0.55;;;-2.20;99.90;;;;;;5060009;28;20045;-65
2021/12/11 06:12:06;;;;;;;0.00;0.00;;;-2.20;99.90;;;;;;5060944;28;20048;-66
2021/12/11 06:14:33;;;;;;;0.00;0.00;;;-2.20;99.90;;;;;;5061208;28;20045;-66
2021/12/11 06:17:01;;;;;;;0.00;0.00;;;-2.10;99.90;;;;;;5059652;28;20379;-65
2021/12/11 06:19:28;;;;;;;0.00;0.00;;;-2.00;99.90;;;;;;5060703;28;20102;-65
2021/12/11 06:21:55;;;;;;;0.00;0.00;;;-2.00;99.90;;;;;;5060688;28;20048;-66
2021/12/11 06:24:22;;;;;;;0.00;0.00;;;-2.10;99.90;;;;;;5060546;28;20517;-65
2021/12/11 06:26:49;;;;;;;0.00;0.00;;;-2.00;99.90;;;;;;5059470;28;20127;-67
2021/12/11 06:29:15;;;;;;;0.00;0.00;;;-2.00;99.90;;;;;;5060585;28;20040;-66
2021/12/11 06:31:44;;;;;;;0.00;0.00;;;-2.10;99.90;;;;;;5059342;28;20044;-66
2021/12/11 06:34:12;;;;;;;0.00;0.00;;;-1.90;99.90;;;;;;5058668;28;20091;-67
2021/12/11 06:36:38;;;;;;;0.00;0.00;;;-0.60;99.90;;;;;;5060563;28;21163;-65
2021/12/11 06:39:08;;;;;;;0.00;0.00;;;-1.90;99.90;;;;;;5058810;28;20033;-67
2021/12/11 06:41:37;;;;;;;0.00;0.00;;;-1.80;99.90;;;;;;5060409;28;20415;-66
2021/12/11 06:44:04;;;;;;;0.00;0.00;;;-1.80;99.90;;;;;;5059626;28;20139;-65
2021/12/11 06:46:31;;;;;;;0.00;0.00;;;-1.70;99.90;;;;;;5093102;28;20054;-65
2021/12/11 06:48:57;;;;;;;0.00;0.00;;;-1.70;99.90;;;;;;5059274;28;20101;-64
2021/12/11 06:51:23;;;;;;;0.00;0.00;;;-0.50;99.90;;;;;;5058955;28;20101;-67
2021/12/11 06:53:59;;;;;;;0.00;0.00;;;-1.80;99.90;;;;;;5060020;28;20045;-65
2021/12/11 06:56:26;;;;;;;0.00;0.00;;;-1.80;99.90;;;;;;5058580;28;20052;-66
2021/12/11 06:58:53;;;;;;;0.00;0.00;;;-1.80;99.90;;;;;;5058028;28;20076;-66
2021/12/11 07:01:20;;;;;;;0.00;0.00;;;-1.70;99.90;;;;;;5059758;28;20059;-64
2021/12/11 07:03:46;;;;;;;4.35;3.95;;;-1.70;99.90;;;;;;5066650;28;20048;-65
2021/12/11 07:06:13;;;;;;;0.10;0.10;;;-1.70;99.90;;;;;;5063427;28;20048;-66
2021/12/11 07:08:39;;;;;;;1.80;1.55;;;-1.60;99.90;;;;;;5058865;28;20045;-65
2021/12/11 07:11:07;;;;;;;0.03;0.03;;;-1.50;99.90;;;;;;5059330;28;20045;-64
2021/12/11 07:13:33;;;;;;;0.00;0.00;;;-1.50;99.90;;;;;;5059971;28;20048;-64
2021/12/11 07:15:59;;;;;;;0.00;0.00;;;-1.50;99.90;;;;;;5059793;28;20154;-66
2021/12/11 07:18:27;;;;;;;0.00;0.00;;;-1.50;99.90;;;;;;5056703;28;20158;-65
2021/12/11 07:20:54;;;;;;;0.00;0.00;;;-1.60;99.90;;;;;;5058175;28;20044;-64
2021/12/11 07:23:20;;;;;;;0.00;0.00;;;-1.60;99.90;;;;;;5059735;28;20040;-64
2021/12/11 07:25:56;;;;;;;0.00;0.00;;;-1.60;99.90;;;;;;5058740;28;20048;-65
2021/12/11 07:28:21;;;;;;;0.00;0.00;;;-1.50;99.90;;;;;;5059229;28;20045;-65
2021/12/11 07:30:50;;;;;;;0.00;0.00;;;-1.60;99.90;;;;;;5059373;28;20056;-64
2021/12/11 07:33:17;;;;;;;0.13;0.13;;;-1.60;99.90;;;;;;5057376;28;20039;-65
2021/12/11 07:35:44;;;;;;;0.00;0.00;;;-1.60;99.90;;;;;;5057504;28;20048;-64
2021/12/11 07:38:10;;;;;;;0.17;0.17;;;-1.50;99.90;;;;;;5059150;28;20090;-66
2021/12/11 07:40:48;;;;;;;0.00;0.00;;;-1.50;99.90;;;;;;5059182;28;20526;-65
2021/12/11 07:43:16;;;;;;;0.10;0.10;;;-1.50;99.90;;;;;;5059039;28;20053;-67
2021/12/11 07:45:42;;;;;;;0.30;0.30;;;-0.90;99.90;;;;;;5059004;28;20059;-65
2021/12/11 07:48:09;;;;;;;0.00;0.00;;;-1.70;99.90;;;;;;5057270;28;20086;-67
2021/12/11 07:50:35;;;;;;;0.00;0.00;;;-1.60;99.90;;;;;;5056400;28;20127;-66
2021/12/11 07:53:02;;;;;;;2.33;0.90;;;-1.60;99.90;;;;;;5059269;28;20502;-66
2021/12/11 07:55:28;;;;;;;0.00;0.00;;;-1.60;99.90;;;;;;5057913;28;20044;-66
2021/12/11 07:57:54;;;;;;;0.28;0.28;;;-1.60;99.90;;;;;;5058832;28;20047;-67
2021/12/11 08:00:22;;;;;;;0.00;0.00;;;-1.60;99.90;;;;;;5057396;28;20447;-65
2021/12/11 08:02:48;;;;;;;0.00;0.00;;;-1.60;99.90;;;;;;5058748;28;20050;-68
2021/12/11 08:05:14;;;;;;;0.00;0.00;;;-1.10;99.90;;;;;;5067805;28;20048;-67
2021/12/11 08:07:41;;;;;;;0.00;0.00;;;-1.60;99.90;;;;;;5058018;28;20041;-67
2021/12/11 08:10:11;;;;;;;0.85;0.85;;;-1.60;99.90;;;;;;5058569;28;20066;-66
2021/12/11 08:12:38;;;;;;;0.28;0.28;;;-1.20;99.90;;;;;;5058852;28;20048;-68
2021/12/11 08:15:05;;;;;;;0.00;0.00;;;-1.60;99.90;;;;;;5058049;28;20491;-67
2021/12/11 08:17:32;;;;;;;0.43;0.43;;;-1.60;99.90;;;;;;5089892;28;20141;-67
2021/12/11 08:19:57;;;;;;;4.78;2.20;;;-1.90;99.90;;;;;;5058618;28;20044;-68
2021/12/11 08:22:23;;;;;;;0.00;0.00;;;-1.50;99.90;;;;;;5058530;28;20055;-66
2021/12/11 08:24:50;;;;;;;0.00;0.00;;;;;;;;;;5057694;28;20124;-62
2021/12/11 08:27:20;;;;;;;0.00;0.00;;;-1.40;99.90;;;;;;5058228;28;20604;-64
2021/12/11 08:29:50;;;;;;;0.00;0.00;;;-1.80;99.90;;;;;;5058304;28;20057;-64
2021/12/11 08:32:17;;;;;;;0.30;0.30;;;-1.40;99.90;;;;;;5057491;28;20048;-65
2021/12/11 08:34:43;;;;;;;0.20;0.20;;;-0.70;99.90;;;;;;5057365;28;20436;-64
2021/12/11 08:37:12;;;;;;;0.00;0.00;;;-1.30;99.90;;;;;;5058202;28;20127;-64
2021/12/11 08:39:40;;;;;;;0.00;0.00;;;-1.30;99.90;;;;;;5058138;28;20038;-67
2021/12/11 08:42:15;;;;;;;0.00;0.00;;;-1.20;99.90;;;;;;5057214;28;20060;-67
2021/12/11 08:44:49;;;;;;;;;;;-1.20;99.90;;;;;;5056914;28;20056;-63
2021/12/11 08:47:16;;;;;;;0.00;0.00;;;-1.00;99.90;;;;;;5057448;28;19967;-65
2021/12/11 08:49:42;;;;;;;0.10;0.10;;;-1.00;99.90;;;;;;5057227;28;20052;-66
2021/12/11 08:52:19;;;;;;;0.00;0.00;;;-0.90;99.90;;;;;;5056549;28;20162;-65
2021/12/11 08:54:45;;;;;;;0.00;0.00;;;-0.90;99.90;;;;;;5057711;28;20059;-65
2021/12/11 08:57:15;;;;;;;0.00;0.00;;;-0.90;99.90;;;;;;5057095;28;20043;-66
2021/12/11 08:59:45;;;;;;;0.00;0.00;;;-0.70;99.90;;;;;;5057979;28;20048;-66
2021/12/11 09:02:15;;;;;;;0.52;0.52;;;-0.60;99.90;;;;;;5057490;28;20497;-67
2021/12/11 09:05:04;;;;;;;0.00;0.00;;;-0.50;99.90;;;;;;5067870;28;20095;-65
2021/12/11 09:07:44;;;;;;;0.00;0.00;;;-0.50;99.90;;;;;;5058549;28;20178;-65
2021/12/11 09:10:20;;;;;;;0.60;0.47;;;-0.50;99.90;;;;;;5057167;28;20048;-66
2021/12/11 09:12:51;;;;;;;0.00;0.00;;;-0.40;99.90;;;;;;5060052;28;20120;-68
2021/12/11 09:15:24;;;;;;;0.00;0.00;;;-0.30;99.90;;;;;;5071607;28;20097;-67
2021/12/11 09:18:01;;;;;;;1.00;1.00;;;0.50;99.90;;;;;;5080968;28;20094;-65
2021/12/11 09:20:37;;;;;;;0.00;0.00;;;-0.10;99.90;;;;;;5081613;28;20079;-66
2021/12/11 09:23:06;;;;;;;0.00;0.00;;;0.00;99.90;;;;;;5080668;28;20040;-65
2021/12/11 09:25:46;;;;;;;0.00;0.00;;;0.00;99.90;;;;;;5082454;28;20423;-67
2021/12/11 09:28:33;;;;;;;0.10;0.10;;;0.10;99.90;;;;;;5080812;28;20054;-66
2021/12/11 09:31:28;;;;;;;0.00;0.00;;;0.20;99.90;;;;;;5082184;28;20048;-66
2021/12/11 09:34:11;;;;;;;0.00;0.00;;;0.70;99.90;;;;;;5080457;28;20054;-66
2021/12/11 09:36:43;;;;;;;0.00;0.00;;;1.80;99.90;;;;;;5080425;28;20036;-65
2021/12/11 09:39:16;;;;;;;0.47;0.47;;;2.00;99.90;;;;;;5080668;28;20081;-66
2021/12/11 09:41:41;;;;;;;0.75;0.75;;;2.50;99.90;;;;;;5081372;28;20040;-65
2021/12/11 09:44:17;;;;;;;0.00;0.00;;;2.70;99.90;;;;;;5081455;28;20618;-65
2021/12/11 09:46:53;;;;;;;0.38;0.38;;;3.00;99.90;;;;;;5080110;28;20080;-65
2021/12/11 09:49:23;;;;;;;0.00;0.00;;;3.10;99.90;;;;;;5081433;28;20131;-65
2021/12/11 09:52:01;;;;;;;0.00;0.00;;;3.30;99.90;;;;;;5080747;28;20055;-65
2021/12/11 09:54:30;;;;;;;0.00;0.00;;;3.70;99.90;;;;;;5081318;28;20132;-66
2021/12/11 09:57:07;;;;;;;0.00;0.00;;;3.70;99.90;;;;;;5080292;28;20040;-68
2021/12/11 09:59:35;;;;;;;0.00;0.00;;;4.20;99.90;;;;;;5080662;28;20063;-65
2021/12/11 10:02:08;;;;;;;0.00;0.00;;;4.30;99.90;;;;;;5080590;28;20048;-65
2021/12/11 10:04:39;;;;;;;0.45;0.45;;;4.40;99.90;;;;;;5069566;28;20483;-66
2021/12/11 10:07:28;;;;;;;0.10;0.10;;;4.20;99.90;;;;;;5080019;28;20040;-65
2021/12/11 10:10:04;;;;;;;0.00;0.00;;;4.60;99.90;;;;;;5081099;28;20402;-66
2021/12/11 10:12:34;;;;;;;0.00;0.00;;;4.70;99.90;;;;;;5079542;28;20043;-66
2021/12/11 10:15:15;;;;;;;4.68;1.88;;;4.90;99.90;;;;;;5081108;28;20040;-66
2021/12/11 10:18:14;;;;;;;0.00;0.00;;;5.10;99.90;;;;;;5079181;28;20048;-66
2021/12/11 10:20:44;;;;;;;0.00;0.00;;;5.70;99.90;;;;;;5067588;28;20142;-66
2021/12/11 10:23:15;;;;;;;0.10;0.10;;;5.50;99.90;;;;;;5079212;28;20040;-66
2021/12/11 10:25:42;;;;;;;0.00;0.00;;;5.60;99.90;;;;;;5113388;27;20705;-64
2021/12/11 10:28:11;;;;;;;8.10;2.90;;;5.50;99.90;;;;;;5080654;28;20050;-65
2021/12/11 10:30:44;;;;;;;0.00;0.00;;;6.00;99.90;;;;;;5079567;28;20123;-65
2021/12/11 10:33:11;;;;;;;0.17;0.17;;;5.50;99.90;;;;;;5079629;28;20075;-66
2021/12/11 10:35:40;;;;;;;0.00;0.00;;;5.60;99.90;;;;;;5079766;28;20616;-65
2021/12/11 10:38:07;;;;;;;0.10;0.10;;;5.60;99.90;;;;;;5076578;28;20047;-65
2021/12/11 10:40:39;;;;;;;0.60;0.60;;;5.40;99.90;;;;;;5080533;28;20036;-66
2021/12/11 10:43:15;;;;;;;0.00;0.00;;;5.40;99.90;;;;;;5080278;28;20506;-64
2021/12/11 10:45:42;;;;;;;0.15;0.10;;;5.40;99.90;;;;;;5079448;28;20060;-66
2021/12/11 10:48:14;;;;;;;0.45;0.30;;;5.80;99.90;;;;;;5079554;28;20032;-65
2021/12/11 10:50:47;;;;;;;0.00;0.00;;;7.50;99.90;;;;;;5079904;28;20056;-66
2021/12/11 10:53:16;;;;;;;0.00;0.00;;;7.20;99.90;;;;;;5079177;28;20055;-66
2021/12/11 10:55:42;;;;;;;0.00;0.00;;;5.70;99.90;;;;;;5078968;28;20108;-66
2021/12/11 10:58:15;;;;;;;2.17;0.98;;;5.80;99.90;;;;;;5080052;28;20630;-65
2021/12/11 11:01:27;;;;;;;0.55;0.55;;;5.60;99.90;;;;;;5078765;28;20583;-65
2021/12/11 11:03:57;;;;;;;0.10;0.10;;;5.60;99.90;;;;;;5020047;28;20152;-66
2021/12/11 11:06:24;;;;;;;0.10;0.10;;;5.90;99.90;;;;;;5033370;28;20053;-66
2021/12/11 11:08:50;;;;;;;0.05;0.05;;;5.80;99.90;;;;;;5040206;28;20060;-65
2021/12/11 11:11:20;;;;;;;0.10;0.10;;;6.30;99.90;;;;;;5092281;28;20592;-66
2021/12/11 11:13:46;;;;;;;0.00;0.00;;;7.00;99.90;;;;;;5058514;28;20048;-65
2021/12/11 11:16:13;;;;;;;0.30;0.30;;;5.90;99.90;;;;;;5058082;28;20141;-66
2021/12/11 11:18:39;;;;;;;0.00;0.00;;;5.60;99.90;;;;;;5111250;27;20043;-66
2021/12/11 11:21:15;;;;;;;0.22;0.22;;;5.40;99.90;;;;;;5078305;28;20044;-66
2021/12/11 11:23:43;;;;;;;0.38;0.38;;;5.30;99.90;;;;;;5078388;28;20076;-66
2021/12/11 11:26:23;;;;;;;0.38;0.38;;;5.60;99.90;;;;;;5071672;28;20054;-67
2021/12/11 11:28:49;;;;;;;0.52;0.52;;;5.70;99.90;;;;;;5076734;28;20113;-66
2021/12/11 11:31:22;;;;;;;1.55;0.82;;;5.50;99.90;;;;;;5076018;28;20079;-65
2021/12/11 11:33:48;;;;;;;0.00;0.00;;;5.60;99.90;;;;;;5077411;28;20036;-66
2021/12/11 11:36:18;;;;;;;0.00;0.00;;;5.90;99.90;;;;;;5075435;28;20036;-65
2021/12/11 11:38:49;;;;;;;0.00;0.00;;;6.10;99.90;;;;;;5076738;28;20040;-65
2021/12/11 11:41:21;;;;;;;0.10;0.10;;;5.60;99.90;;;;;;5076585;28;20048;-65
2021/12/11 11:43:47;;;;;;;0.43;0.43;;;5.50;99.90;;;;;;5077685;28;20051;-66
2021/12/11 11:46:14;;;;;;;1.20;1.17;;;5.30;99.90;;;;;;5078173;28;20809;-65
2021/12/11 11:48:43;;;;;;;0.10;0.10;;;5.30;99.90;;;;;;5079158;28;20051;-64
2021/12/11 11:51:15;;;;;;;0.00;0.00;;;6.10;99.90;;;;;;5078428;28;20060;-65
2021/12/11 11:53:42;;;;;;;0.10;0.10;;;5.20;99.90;;;;;;5078826;28;20091;-65
2021/12/11 11:56:11;;;;;;;0.10;0.10;;;4.60;99.90;;;;;;5078471;28;20580;-65
2021/12/11 11:58:37;;;;;;;0.00;0.00;;;4.40;99.90;;;;;;5077815;28;20604;-65
2021/12/11 12:01:11;;;;;;;0.00;0.00;;;4.50;99.90;;;;;;5058757;28;20127;-65
2021/12/11 12:03:38;;;;;;;0.43;0.43;;;4.70;99.90;;;;;;5071386;28;20169;-67
2021/12/11 12:06:10;;;;;;;0.00;0.00;;;4.70;99.90;;;;;;5061603;28;20694;-65
2021/12/11 12:08:37;;;;;;;0.77;0.70;;;4.30;99.90;;;;;;5057612;28;20048;-65
2021/12/11 12:11:05;;;;;;;0.00;0.00;;;4.40;99.90;;;;;;5058290;28;20051;-66
2021/12/11 12:13:32;;;;;;;0.00;0.00;;;4.50;99.90;;;;;;5058979;28;20132;-68
2021/12/11 12:16:04;;;;;;;0.00;0.00;;;4.60;99.90;;;;;;5057952;28;20121;-66
2021/12/11 12:18:32;;;;;;;1.00;0.57;;;5.30;99.90;;;;;;5059066;28;20080;-67
2021/12/11 12:20:59;;;;;;;0.00;0.00;;;4.50;99.90;;;;;;5076976;28;20047;-66
2021/12/11 12:23:31;;;;;;;0.13;0.13;;;4.60;99.90;;;;;;5078573;28;20146;-68
2021/12/11 12:26:01;;;;;;;0.00;0.00;;;4.40;99.90;;;;;;5077366;28;20087;-68
2021/12/11 12:28:28;;;;;;;0.30;0.30;;;4.20;99.90;;;;;;5077190;28;20040;-67
2021/12/11 12:30:58;;;;;;;0.00;0.00;;;3.90;99.90;;;;;;5077521;28;20499;-66
2021/12/11 12:33:24;;;;;;;0.00;0.00;;;3.80;99.90;;;;;;5077019;28;20093;-67
2021/12/11 12:35:50;;;;;;;0.00;0.00;;;3.70;99.90;;;;;;5078314;28;20044;-67
2021/12/11 12:38:18;;;;;;;0.00;0.00;;;3.70;99.90;;;;;;5076934;28;20532;-66
2021/12/11 12:41:04;;;;;;;0.20;0.20;;;3.60;99.90;;;;;;5078119;28;20457;-67
2021/12/11 12:46:31;;;;;;;0.00;0.00;;;3.50;99.90;;;;;;5075916;28;20052;-66
2021/12/11 12:48:59;;;;;;;0.00;0.00;;;3.50;99.90;;;;;;5077912;28;20127;-67
2021/12/11 12:51:27;;;;;;;0.00;0.00;;;3.50;99.90;;;;;;5077057;28;20067;-65
2021/12/11 12:53:56;;;;;;;0.00;0.00;;;3.50;99.90;;;;;;5076821;28;20047;-66
2021/12/11 12:56:54;;;;;;;0.00;0.00;;;3.50;99.90;;;;;;5077922;28;20461;-66
2021/12/11 12:59:35;;;;;;;0.00;0.00;;;3.50;99.90;;;;;;5070777;28;20533;-64
2021/12/11 13:02:06;;;;;;;0.00;0.00;;;3.50;99.90;;;;;;5077181;28;20060;-64
2021/12/11 13:04:37;;;;;;;0.05;0.05;;;3.50;99.90;;;;;;5068733;28;20048;-60
2021/12/11 13:07:06;;;;;;;0.88;0.60;;;3.50;99.90;;;;;;5057053;28;20083;-64
2021/12/11 13:09:55;;;;;;;0.00;0.00;;;4.20;99.90;;;;;;5056428;28;20048;-66
2021/12/11 13:12:28;;;;;;;0.00;0.00;;;3.70;99.90;;;;;;5056992;28;20714;-65
2021/12/11 13:15:00;;;;;;;0.10;0.10;;;3.60;99.90;;;;;;5057090;28;20406;-65
2021/12/11 13:17:31;;;;;;;0.00;0.00;;;4.20;99.90;;;;;;5056600;28;20041;-64
2021/12/11 13:20:03;;;;;;;0.00;0.00;;;3.60;99.90;;;;;;5069782;28;20059;-65
2021/12/11 13:22:37;;;;;;;0.00;0.00;;;4.30;99.90;;;;;;5078184;28;20048;-65